Time;durP1;ratioP1;P1;durP2;ratioP2;P2;SDS_P1;SDS_P2;PMS_P1;PMS_P2;Temp;Humidity;BMP_temperature;BMP_pressure;BME280_temperature;BME280_humidity;BME280_pressure;Samples;Min_cycle;Max_cycle;Signal;HPM_P1;HPM_P2
2023/06/12 00:00:52;;;;;;;8.52;4.25;;;18.60;79.00;;;;;;5045963;28;20045;-75
2023/06/12 00:03:19;;;;;;;6.63;4.47;;;18.60;79.00;;;;;;5063094;28;20555;-75
2023/06/12 00:05:46;;;;;;;6.40;4.10;;;18.60;79.00;;;;;;5045788;28;20091;-75
2023/06/12 00:08:13;;;;;;;7.55;4.00;;;18.60;79.20;;;;;;5096276;28;20123;-75
2023/06/12 00:10:43;;;;;;;7.97;4.38;;;18.50;79.30;;;;;;5077104;28;20443;-75
2023/06/12 00:13:10;;;;;;;8.30;4.05;;;18.50;79.50;;;;;;5055395;28;20214;-75
2023/06/12 00:15:36;;;;;;;6.13;3.50;;;18.50;79.70;;;;;;5034859;28;20071;-75
2023/06/12 00:18:02;;;;;;;9.18;3.78;;;18.50;79.80;;;;;;5032303;28;20067;-75
2023/06/12 00:20:29;;;;;;;7.75;3.90;;;18.40;80.30;;;;;;5054405;28;20056;-75
2023/06/12 00:22:55;;;;;;;5.78;4.00;;;18.40;80.20;;;;;;5057403;28;20086;-75
2023/06/12 00:25:21;;;;;;;8.23;4.50;;;18.40;80.40;;;;;;5070753;28;20041;-75
2023/06/12 00:27:47;;;;;;;7.47;3.67;;;18.30;80.40;;;;;;5056178;28;20044;-75
2023/06/12 00:30:13;;;;;;;8.40;4.40;;;18.30;80.80;;;;;;5069928;28;20075;-75
2023/06/12 00:32:39;;;;;;;7.18;3.35;;;18.20;81.00;;;;;;5045814;28;20048;-75
2023/06/12 00:35:05;;;;;;;10.95;5.05;;;18.20;81.00;;;;;;5060785;28;20049;-75
2023/06/12 00:37:32;;;;;;;7.18;3.85;;;18.10;81.40;;;;;;5076473;28;20056;-75
2023/06/12 00:39:57;;;;;;;13.07;4.25;;;18.10;81.70;;;;;;5102414;27;20382;-75
2023/06/12 00:42:29;;;;;;;7.80;3.80;;;18.10;82.50;;;;;;5045834;28;20043;-75
2023/06/12 00:44:55;;;;;;;18.13;3.95;;;18.00;82.10;;;;;;5065083;28;20097;-75
2023/06/12 00:47:21;;;;;;;11.52;4.15;;;18.00;82.40;;;;;;5049007;28;20123;-75
2023/06/12 00:49:48;;;;;;;10.15;3.88;;;17.90;82.40;;;;;;5052598;28;20037;-75
2023/06/12 00:52:15;;;;;;;6.38;3.75;;;17.90;82.50;;;;;;5064077;28;20043;-75
2023/06/12 00:54:44;;;;;;;8.77;4.03;;;17.90;82.90;;;;;;5036889;28;20460;-75
2023/06/12 00:57:11;;;;;;;8.20;4.00;;;17.80;83.00;;;;;;5059718;28;20032;-75
2023/06/12 00:59:37;;;;;;;6.32;3.90;;;17.70;83.30;;;;;;5056365;28;20397;-75
2023/06/12 01:02:06;;;;;;;6.93;4.25;;;17.60;83.40;;;;;;5080889;28;20040;-75
2023/06/12 01:04:33;;;;;;;8.25;4.40;;;17.50;83.80;;;;;;5063358;28;20029;-75
2023/06/12 01:07:08;;;;;;;12.15;3.78;;;17.50;84.00;;;;;;5076763;28;20044;-74
2023/06/12 01:09:41;;;;;;;9.18;3.80;;;17.50;84.40;;;;;;5065954;28;20029;-74
2023/06/12 01:12:08;;;;;;;11.93;4.32;;;17.40;85.00;;;;;;5063505;28;20064;-75
2023/06/12 01:14:34;;;;;;;6.75;3.60;;;17.30;85.10;;;;;;5048050;28;20058;-74
2023/06/12 01:17:02;;;;;;;7.70;3.40;;;17.30;85.70;;;;;;5042745;28;20056;-74
2023/06/12 01:19:28;;;;;;;8.48;3.50;;;17.30;86.00;;;;;;5043672;28;20116;-75
2023/06/12 01:21:58;;;;;;;8.38;3.95;;;17.20;86.20;;;;;;5065409;28;20136;-74
2023/06/12 01:24:47;;;;;;;11.90;3.58;;;17.10;86.40;;;;;;5094123;27;20090;-75
2023/06/12 01:27:39;;;;;;;10.00;4.05;;;17.10;87.00;;;;;;5076386;28;20549;-74
2023/06/12 01:30:42;;;;;;;7.68;3.65;;;17.00;88.70;;;;;;5074104;28;20135;-74
2023/06/12 01:33:13;;;;;;;7.10;4.32;;;17.00;88.00;;;;;;5062436;28;20039;-74
2023/06/12 01:35:43;;;;;;;11.23;4.47;;;16.90;87.60;;;;;;5079450;28;20056;-74
2023/06/12 01:38:20;;;;;;;7.95;4.20;;;16.80;87.50;;;;;;5065749;28;20036;-74
2023/06/12 01:40:48;;;;;;;6.50;4.25;;;16.80;88.20;;;;;;5045317;28;20123;-75
2023/06/12 01:43:14;;;;;;;12.02;4.00;;;16.70;88.10;;;;;;5062679;28;20036;-75
2023/06/12 01:45:40;;;;;;;8.70;4.22;;;16.70;88.50;;;;;;5049390;28;20049;-75
2023/06/12 01:48:06;;;;;;;9.25;4.18;;;16.60;88.70;;;;;;5040180;28;20055;-75
2023/06/12 01:50:32;;;;;;;9.68;4.53;;;16.60;89.20;;;;;;5063534;28;20045;-75
2023/06/12 01:52:58;;;;;;;7.40;4.13;;;16.50;89.70;;;;;;5065259;28;20434;-74
2023/06/12 01:55:24;;;;;;;6.72;3.45;;;16.50;90.20;;;;;;5058743;28;20032;-75
2023/06/12 01:57:50;;;;;;;12.75;4.40;;;16.40;90.20;;;;;;5066189;28;20063;-75
2023/06/12 02:00:17;;;;;;;5.57;3.95;;;16.40;90.60;;;;;;5071868;28;20041;-75
2023/06/12 02:02:43;;;;;;;6.38;3.83;;;16.40;90.80;;;;;;5089241;27;20029;-74
2023/06/12 02:05:10;;;;;;;8.10;4.00;;;16.30;90.90;;;;;;5055809;28;20397;-74
2023/06/12 02:07:36;;;;;;;5.47;4.20;;;16.30;91.30;;;;;;5071803;28;20486;-75
2023/06/12 02:10:02;;;;;;;5.60;3.85;;;16.20;91.50;;;;;;5057413;28;20044;-75
2023/06/12 02:12:29;;;;;;;9.77;4.55;;;16.20;91.30;;;;;;5047793;28;20558;-74
2023/06/12 02:14:57;;;;;;;9.73;3.75;;;16.10;91.50;;;;;;5049864;28;20047;-74
2023/06/12 02:17:23;;;;;;;9.00;3.95;;;16.10;91.70;;;;;;5050910;28;20036;-74
2023/06/12 02:19:49;;;;;;;10.27;4.72;;;16.00;91.90;;;;;;5046608;28;20119;-74
2023/06/12 02:22:15;;;;;;;5.93;4.05;;;16.00;91.90;;;;;;5052583;28;20127;-74
2023/06/12 02:24:41;;;;;;;10.73;4.80;;;16.00;92.20;;;;;;5053088;28;20036;-74
2023/06/12 02:27:06;;;;;;;6.63;4.38;;;16.00;92.70;;;;;;5036329;28;20044;-75
2023/06/12 02:29:32;;;;;;;10.10;4.18;;;15.90;92.50;;;;;;5035625;28;20036;-74
2023/06/12 02:31:58;;;;;;;7.07;4.00;;;15.90;92.70;;;;;;5076007;28;20032;-74
2023/06/12 02:34:23;;;;;;;5.78;4.13;;;15.90;93.00;;;;;;5047369;28;20041;-74
2023/06/12 02:36:50;;;;;;;7.72;4.22;;;15.80;93.10;;;;;;5052528;28;20040;-74
2023/06/12 02:39:16;;;;;;;8.52;4.32;;;15.80;93.30;;;;;;5069724;28;20029;-75
2023/06/12 02:41:46;;;;;;;7.47;4.68;;;15.80;93.40;;;;;;5068273;28;20036;-74
2023/06/12 02:44:12;;;;;;;6.53;4.32;;;15.70;93.60;;;;;;5089083;27;20052;-74
2023/06/12 02:46:53;;;;;;;10.13;4.38;;;15.70;93.60;;;;;;5056454;28;20064;-74
2023/06/12 02:49:20;;;;;;;6.45;3.80;;;15.70;94.20;;;;;;5060040;28;20120;-75
2023/06/12 02:51:46;;;;;;;9.93;4.63;;;15.60;94.30;;;;;;5090963;27;20037;-74
2023/06/12 02:54:12;;;;;;;7.75;4.43;;;15.60;94.30;;;;;;5087060;27;20048;-74
2023/06/12 02:56:41;;;;;;;10.25;4.57;;;15.60;94.50;;;;;;5065449;28;20036;-74
2023/06/12 02:59:08;;;;;;;12.65;7.07;;;15.50;94.50;;;;;;5043163;28;20588;-74
2023/06/12 03:01:33;;;;;;;9.63;4.72;;;15.50;94.80;;;;;;5033422;28;20375;-74
2023/06/12 03:03:59;;;;;;;8.90;4.53;;;15.50;95.10;;;;;;5040387;28;20028;-74
2023/06/12 03:06:28;;;;;;;10.15;4.22;;;15.40;95.20;;;;;;5046051;28;20052;-75
2023/06/12 03:08:55;;;;;;;7.30;4.45;;;15.40;95.70;;;;;;5085974;27;20073;-75
2023/06/12 03:11:22;;;;;;;10.85;5.28;;;15.40;95.80;;;;;;5073030;28;20037;-74
2023/06/12 03:13:47;;;;;;;7.28;4.97;;;15.40;96.40;;;;;;5074348;28;20044;-75
2023/06/12 03:16:14;;;;;;;10.15;4.65;;;15.40;96.30;;;;;;5061863;28;20090;-75
2023/06/12 03:18:40;;;;;;;11.82;4.90;;;15.30;96.40;;;;;;5055699;28;20099;-74
2023/06/12 03:21:06;;;;;;;16.25;4.93;;;15.30;96.70;;;;;;5055886;28;20123;-74
2023/06/12 03:23:32;;;;;;;13.38;4.80;;;15.30;96.90;;;;;;5069400;28;20048;-75
2023/06/12 03:25:57;;;;;;;10.50;4.90;;;15.20;97.20;;;;;;5053562;28;20037;-74
2023/06/12 03:28:23;;;;;;;8.10;5.05;;;15.20;97.50;;;;;;5059609;28;20041;-75
2023/06/12 03:30:49;;;;;;;10.85;4.55;;;15.20;97.60;;;;;;5065485;28;20055;-74
2023/06/12 03:33:15;;;;;;;8.95;4.53;;;15.20;98.00;;;;;;5068952;28;20041;-75
2023/06/12 03:35:41;;;;;;;12.18;4.85;;;15.20;98.60;;;;;;5046572;28;20087;-74
2023/06/12 03:38:06;;;;;;;8.90;4.60;;;15.10;98.50;;;;;;5045219;28;20047;-75
2023/06/12 03:40:32;;;;;;;14.30;4.55;;;15.10;98.70;;;;;;5050894;28;20049;-74
2023/06/12 03:42:57;;;;;;;7.40;4.78;;;15.10;99.00;;;;;;5061530;28;21472;-74
2023/06/12 03:45:23;;;;;;;7.88;4.78;;;15.10;99.40;;;;;;5036808;28;20541;-75
2023/06/12 03:47:49;;;;;;;8.35;4.85;;;15.10;99.50;;;;;;5060830;28;20525;-74
2023/06/12 03:50:16;;;;;;;11.50;4.40;;;15.10;99.70;;;;;;5054808;28;20064;-74
2023/06/12 03:52:42;;;;;;;8.00;4.60;;;15.10;99.90;;;;;;5055402;28;20048;-74
2023/06/12 03:55:08;;;;;;;8.30;5.55;;;15.10;99.90;;;;;;5059121;28;20060;-75
2023/06/12 03:57:34;;;;;;;10.93;5.63;;;15.10;99.90;;;;;;5050969;28;20072;-74
2023/06/12 04:00:00;;;;;;;9.40;4.95;;;15.10;99.90;;;;;;5042882;28;20143;-74
2023/06/12 04:02:25;;;;;;;24.33;5.15;;;15.10;99.90;;;;;;5052526;28;20039;-74
2023/06/12 04:04:51;;;;;;;10.38;4.72;;;15.20;99.90;;;;;;5029960;28;20032;-74
2023/06/12 04:07:18;;;;;;;7.55;4.30;;;15.20;99.90;;;;;;5078446;28;20037;-74
2023/06/12 04:09:44;;;;;;;8.52;4.75;;;15.20;99.90;;;;;;5043070;28;20428;-74
2023/06/12 04:12:10;;;;;;;14.65;4.75;;;15.20;99.90;;;;;;5055392;28;20040;-74
2023/06/12 04:14:35;;;;;;;10.50;5.50;;;15.10;99.90;;;;;;5048672;28;20397;-74
2023/06/12 04:17:02;;;;;;;11.02;4.88;;;15.10;99.90;;;;;;5062062;28;20037;-74
2023/06/12 04:19:27;;;;;;;11.07;4.95;;;15.10;99.90;;;;;;5047489;28;20041;-74
2023/06/12 04:21:54;;;;;;;8.32;4.40;;;15.10;99.90;;;;;;5030636;28;20037;-74
2023/06/12 04:24:21;;;;;;;8.43;5.10;;;15.20;99.90;;;;;;5060868;28;20482;-74
2023/06/12 04:26:48;;;;;;;6.95;4.72;;;15.10;99.90;;;;;;5062611;28;20055;-74
2023/06/12 04:29:16;;;;;;;11.35;5.38;;;15.10;99.90;;;;;;5026523;28;20124;-74
2023/06/12 04:31:42;;;;;;;10.13;4.78;;;15.10;99.90;;;;;;5078357;28;20518;-74
2023/06/12 04:34:07;;;;;;;10.82;5.40;;;15.10;99.90;;;;;;5054652;28;20051;-74
2023/06/12 04:36:37;;;;;;;11.57;5.95;;;15.10;99.90;;;;;;5045487;28;20498;-74
2023/06/12 04:39:04;;;;;;;7.72;4.78;;;15.00;99.90;;;;;;5044482;28;20040;-74
2023/06/12 04:41:32;;;;;;;9.85;5.50;;;15.00;99.90;;;;;;5077723;28;20037;-74
2023/06/12 04:44:03;;;;;;;8.85;5.20;;;15.00;99.90;;;;;;5044774;28;20520;-75
2023/06/12 04:46:29;;;;;;;7.18;5.57;;;15.00;99.90;;;;;;5055766;28;20036;-74
2023/06/12 04:48:55;;;;;;;12.50;4.90;;;15.00;99.90;;;;;;5090318;28;20497;-75
2023/06/12 04:51:23;;;;;;;9.60;5.82;;;15.00;99.90;;;;;;5041753;28;20486;-74
2023/06/12 04:53:49;;;;;;;10.93;5.38;;;15.10;99.90;;;;;;5030318;28;20047;-74
2023/06/12 04:56:20;;;;;;;11.23;5.72;;;15.10;99.90;;;;;;5044543;28;20493;-74
2023/06/12 04:58:46;;;;;;;11.48;5.35;;;15.20;99.90;;;;;;5058845;28;20061;-74
2023/06/12 05:01:12;;;;;;;12.02;5.80;;;15.20;99.90;;;;;;5054351;28;20032;-75
2023/06/12 05:03:40;;;;;;;10.32;5.57;;;15.20;99.90;;;;;;5044459;28;20044;-75
2023/06/12 05:06:07;;;;;;;15.98;5.80;;;15.30;99.90;;;;;;5065377;28;20572;-74
2023/06/12 05:08:33;;;;;;;12.52;5.57;;;15.30;99.90;;;;;;5071411;28;20043;-74
2023/06/12 05:10:59;;;;;;;15.75;6.13;;;15.30;99.90;;;;;;5073723;28;20032;-74
2023/06/12 05:13:25;;;;;;;10.68;5.93;;;15.40;99.90;;;;;;5045281;28;20494;-74
2023/06/12 05:15:50;;;;;;;15.95;6.53;;;15.40;99.90;;;;;;5053757;28;20493;-74
2023/06/12 05:18:16;;;;;;;30.95;6.85;;;15.50;99.90;;;;;;5033973;28;20033;-75
2023/06/12 05:20:42;;;;;;;16.02;5.90;;;15.50;99.90;;;;;;5049157;28;20037;-74
2023/06/12 05:23:08;;;;;;;12.07;6.18;;;15.60;99.90;;;;;;5032989;28;20098;-75
2023/06/12 05:25:33;;;;;;;18.52;6.07;;;15.60;99.90;;;;;;5060636;28;20397;-75
2023/06/12 05:27:59;;;;;;;13.75;6.28;;;15.70;99.90;;;;;;5033224;28;20040;-75
2023/06/12 05:30:25;;;;;;;7.80;5.63;;;15.80;99.90;;;;;;5035528;28;20040;-74
2023/06/12 05:32:50;;;;;;;10.98;6.25;;;15.80;99.90;;;;;;5061391;28;20051;-75
2023/06/12 05:35:17;;;;;;;10.30;6.15;;;15.90;99.90;;;;;;5048262;28;20047;-74
2023/06/12 05:37:42;;;;;;;9.48;5.55;;;16.00;99.90;;;;;;5077272;28;20449;-75
2023/06/12 05:40:13;;;;;;;7.75;5.55;;;16.00;99.90;;;;;;5054331;28;20029;-75
2023/06/12 05:42:39;;;;;;;11.85;6.53;;;16.10;99.90;;;;;;5051146;28;20040;-75
2023/06/12 05:45:05;;;;;;;12.35;6.40;;;16.20;99.90;;;;;;5046353;28;20528;-75
2023/06/12 05:47:33;;;;;;;14.07;6.13;;;16.30;99.90;;;;;;5052966;28;20029;-75
2023/06/12 05:49:59;;;;;;;12.20;6.43;;;16.40;99.90;;;;;;5041033;28;20090;-75
2023/06/12 05:52:25;;;;;;;22.00;7.45;;;16.50;99.90;;;;;;5042297;28;20048;-75
2023/06/12 05:54:51;;;;;;;18.15;6.80;;;16.50;99.90;;;;;;5094011;27;20029;-75
2023/06/12 05:57:17;;;;;;;11.00;6.68;;;16.60;99.90;;;;;;5074280;28;20106;-74
2023/06/12 05:59:47;;;;;;;9.68;6.70;;;16.70;99.90;;;;;;5061403;28;20047;-75
2023/06/12 06:02:14;;;;;;;13.57;7.25;;;16.70;99.90;;;;;;5067862;28;20046;-75
2023/06/12 06:04:40;;;;;;;11.95;7.18;;;16.80;99.90;;;;;;5064050;28;20055;-75
2023/06/12 06:07:07;;;;;;;13.73;6.78;;;16.90;99.90;;;;;;5048253;28;20037;-75
2023/06/12 06:09:33;;;;;;;15.55;6.72;;;17.00;99.90;;;;;;5069147;28;20516;-75
2023/06/12 06:11:59;;;;;;;12.70;6.93;;;17.10;99.90;;;;;;5080203;28;20029;-75
2023/06/12 06:14:25;;;;;;;14.32;6.32;;;17.20;99.90;;;;;;5048062;28;20044;-75
2023/06/12 06:16:50;;;;;;;9.77;7.10;;;17.30;99.90;;;;;;5048244;28;20584;-75
2023/06/12 06:19:16;;;;;;;15.80;7.25;;;17.40;99.90;;;;;;5057977;28;20115;-75
2023/06/12 06:21:42;;;;;;;12.60;6.90;;;17.50;99.90;;;;;;5042827;28;20041;-75
2023/06/12 06:24:08;;;;;;;11.57;7.53;;;17.60;99.90;;;;;;5059248;28;20037;-75
2023/06/12 06:26:33;;;;;;;12.18;7.47;;;17.70;99.90;;;;;;5026937;28;20475;-74
2023/06/12 06:28:59;;;;;;;10.75;6.97;;;17.80;99.90;;;;;;5079056;28;20078;-75
2023/06/12 06:31:27;;;;;;;12.90;7.85;;;17.90;99.90;;;;;;5052070;28;20068;-75
2023/06/12 06:33:53;;;;;;;12.80;7.45;;;18.10;99.90;;;;;;5038966;28;20091;-74
2023/06/12 06:36:18;;;;;;;10.25;7.40;;;18.20;99.90;;;;;;5068041;28;20745;-75
2023/06/12 06:38:45;;;;;;;11.35;7.57;;;18.30;99.90;;;;;;5051591;28;20098;-76
2023/06/12 06:41:10;;;;;;;18.85;7.70;;;18.40;99.90;;;;;;5075976;28;20035;-74
2023/06/12 06:43:36;;;;;;;12.57;7.10;;;18.50;99.90;;;;;;5063951;28;20033;-73
2023/06/12 06:46:02;;;;;;;9.60;6.93;;;18.70;99.90;;;;;;5095594;27;20453;-73
2023/06/12 06:48:27;;;;;;;10.40;6.55;;;18.80;99.90;;;;;;5046277;28;20063;-72
2023/06/12 06:50:53;;;;;;;12.48;7.25;;;19.00;99.90;;;;;;5062405;28;20039;-73
2023/06/12 06:53:19;;;;;;;19.35;7.30;;;19.10;99.90;;;;;;5063964;28;20088;-76
2023/06/12 06:55:45;;;;;;;9.23;6.95;;;19.30;99.90;;;;;;5036099;28;20048;-72
2023/06/12 06:58:11;;;;;;;10.23;6.68;;;19.40;99.90;;;;;;5062427;28;20105;-76
2023/06/12 07:00:37;;;;;;;11.18;7.22;;;19.60;99.90;;;;;;5068528;28;20027;-76
2023/06/12 07:03:02;;;;;;;19.85;7.65;;;19.70;99.90;;;;;;5045621;28;20028;-76
2023/06/12 07:05:28;;;;;;;13.05;7.97;;;19.90;99.90;;;;;;5050729;28;20466;-75
2023/06/12 07:07:54;;;;;;;10.45;7.07;;;20.00;99.90;;;;;;5065490;28;20091;-76
2023/06/12 07:10:20;;;;;;;32.75;8.60;;;20.20;99.90;;;;;;5059519;28;20040;-76
2023/06/12 07:12:46;;;;;;;9.68;7.47;;;20.40;99.90;;;;;;5069543;28;20127;-76
2023/06/12 07:15:11;;;;;;;11.68;7.10;;;20.60;99.90;;;;;;5068697;28;20509;-76
2023/06/12 07:17:37;;;;;;;42.35;8.80;;;20.70;99.90;;;;;;5051402;28;20039;-76
2023/06/12 07:20:05;;;;;;;14.32;7.38;;;20.90;99.90;;;;;;5066192;28;20072;-76
2023/06/12 07:22:31;;;;;;;10.98;6.75;;;21.00;99.90;;;;;;5069321;28;20024;-76
2023/06/12 07:24:57;;;;;;;9.27;7.20;;;21.20;99.90;;;;;;5068834;28;20036;-76
2023/06/12 07:27:22;;;;;;;14.50;7.40;;;21.30;99.90;;;;;;5065926;28;20391;-76
2023/06/12 07:29:48;;;;;;;18.92;8.05;;;21.50;99.90;;;;;;5078454;28;20037;-76
2023/06/12 07:32:14;;;;;;;12.88;7.28;;;21.70;99.90;;;;;;5067884;28;20533;-77
2023/06/12 07:34:39;;;;;;;12.05;7.38;;;21.80;99.90;;;;;;5069338;28;20391;-76
2023/06/12 07:37:07;;;;;;;10.63;7.55;;;21.90;99.90;;;;;;5102314;28;20094;-76
2023/06/12 07:39:33;;;;;;;12.57;6.55;;;22.10;99.60;;;;;;5069611;28;20032;-76
2023/06/12 07:41:59;;;;;;;9.77;7.05;;;22.20;99.10;;;;;;5052326;28;20483;-77
2023/06/12 07:44:25;;;;;;;11.77;6.75;;;22.20;98.30;;;;;;5068102;28;20036;-74
2023/06/12 07:46:50;;;;;;;9.60;6.90;;;22.40;98.20;;;;;;5050697;28;20046;-77
2023/06/12 07:49:17;;;;;;;9.35;6.80;;;22.60;97.90;;;;;;5059815;28;20036;-74
2023/06/12 07:51:42;;;;;;;12.23;6.80;;;22.70;97.40;;;;;;5069370;28;20119;-76
2023/06/12 07:54:08;;;;;;;10.35;7.10;;;22.80;97.10;;;;;;5067506;28;20549;-76
2023/06/12 07:56:35;;;;;;;14.00;6.50;;;22.90;97.00;;;;;;5080173;28;20037;-76
2023/06/12 07:59:10;;;;;;;10.00;6.45;;;23.00;97.10;;;;;;5084050;28;20060;-76
2023/06/12 08:01:36;;;;;;;8.68;6.10;;;23.20;96.60;;;;;;5049322;28;20116;-76
2023/06/12 08:04:10;;;;;;;9.85;6.57;;;23.40;96.30;;;;;;5047290;28;20649;-76
2023/06/12 08:06:38;;;;;;;10.40;5.72;;;23.50;95.50;;;;;;5085541;28;20090;-76
2023/06/12 08:09:05;;;;;;;15.52;5.85;;;23.70;95.70;;;;;;5077204;28;20044;-76
2023/06/12 08:11:31;;;;;;;12.80;6.18;;;23.80;95.20;;;;;;5068187;28;20508;-76
2023/06/12 08:13:56;;;;;;;12.68;6.65;;;23.90;94.80;;;;;;5064973;28;20554;-76
2023/06/12 08:16:23;;;;;;;16.65;6.90;;;24.10;94.60;;;;;;5085866;28;20166;-76
2023/06/12 08:18:49;;;;;;;8.13;6.00;;;24.20;93.20;;;;;;5085327;28;20045;-76
2023/06/12 08:21:15;;;;;;;8.85;6.20;;;24.30;93.70;;;;;;5080227;28;20120;-76
2023/06/12 08:23:40;;;;;;;11.95;6.85;;;24.40;93.60;;;;;;5052427;28;20032;-76
2023/06/12 08:26:08;;;;;;;8.18;6.20;;;24.60;93.50;;;;;;5069665;28;20043;-76
2023/06/12 08:28:35;;;;;;;12.93;6.97;;;24.70;93.20;;;;;;5066921;28;20186;-76
2023/06/12 08:31:01;;;;;;;15.13;6.30;;;24.90;93.10;;;;;;5068761;28;20075;-76
2023/06/12 08:33:28;;;;;;;10.77;6.93;;;25.00;92.80;;;;;;5099582;28;20045;-76
2023/06/12 08:35:55;;;;;;;21.33;8.02;;;25.10;92.30;;;;;;5071835;28;20631;-76
2023/06/12 08:38:20;;;;;;;9.63;6.22;;;25.20;92.10;;;;;;5051310;28;20039;-76
2023/06/12 08:40:46;;;;;;;8.23;6.10;;;25.40;92.00;;;;;;5042195;28;20036;-76
2023/06/12 08:43:12;;;;;;;7.93;6.38;;;25.60;92.10;;;;;;5051740;28;20396;-75
2023/06/12 08:45:45;;;;;;;11.10;6.50;;;25.70;91.80;;;;;;5084208;28;20040;-75
2023/06/12 08:48:15;;;;;;;13.18;5.65;;;25.80;91.30;;;;;;5042895;28;20045;-75
2023/06/12 08:50:42;;;;;;;21.80;7.20;;;26.00;91.40;;;;;;5069079;28;20044;-75
2023/06/12 08:53:08;;;;;;;13.02;7.10;;;26.00;90.90;;;;;;5061331;28;20044;-75
2023/06/12 08:55:39;;;;;;;9.20;6.00;;;26.10;90.60;;;;;;5044562;28;20457;-75
2023/06/12 08:58:06;;;;;;;10.88;6.88;;;26.20;90.50;;;;;;5071764;28;20052;-75
2023/06/12 09:00:32;;;;;;;12.30;6.35;;;26.30;90.10;;;;;;5084528;28;20033;-75
2023/06/12 09:02:58;;;;;;;10.75;6.55;;;26.30;89.20;;;;;;5083970;28;20482;-75
2023/06/12 09:05:29;;;;;;;9.77;5.90;;;26.50;89.10;;;;;;5052018;28;20040;-75
2023/06/12 09:07:57;;;;;;;31.80;7.57;;;26.60;87.80;;;;;;5080325;28;20033;-75
2023/06/12 09:10:23;;;;;;;7.25;5.63;;;26.70;88.60;;;;;;5099811;28;20043;-75
2023/06/12 09:12:53;;;;;;;8.30;5.93;;;26.90;86.70;;;;;;5029365;28;20044;-75
2023/06/12 09:15:20;;;;;;;22.17;6.35;;;27.00;82.80;;;;;;5043083;28;20079;-75
2023/06/12 09:17:54;;;;;;;9.57;5.70;;;27.10;83.90;;;;;;5063574;28;20060;-74
2023/06/12 09:20:27;;;;;;;10.50;6.00;;;27.30;82.90;;;;;;5067271;28;20040;-73
2023/06/12 09:23:00;;;;;;;7.70;6.00;;;27.50;81.50;;;;;;5069895;28;20048;-73
2023/06/12 09:25:46;;;;;;;12.27;6.00;;;27.60;80.50;;;;;;5054604;28;20603;-73
2023/06/12 09:28:12;;;;;;;14.55;6.03;;;27.90;79.50;;;;;;5058454;28;20052;-73
2023/06/12 09:30:42;;;;;;;11.73;6.43;;;28.10;80.60;;;;;;5053597;28;20036;-73
2023/06/12 09:33:09;;;;;;;8.23;5.70;;;28.30;80.60;;;;;;5075050;28;20188;-73
2023/06/12 09:35:54;;;;;;;9.40;5.65;;;28.50;79.90;;;;;;5076496;28;20446;-73
2023/06/12 09:38:34;;;;;;;7.95;5.72;;;28.70;78.90;;;;;;5091841;28;20060;-74
2023/06/12 09:41:01;;;;;;;9.63;6.15;;;28.80;77.00;;;;;;5078766;28;20040;-74
2023/06/12 09:43:27;;;;;;;10.63;5.95;;;28.90;77.80;;;;;;5076517;28;20485;-74
2023/06/12 09:45:53;;;;;;;9.93;6.40;;;29.10;78.10;;;;;;5038269;28;20036;-74
2023/06/12 09:48:19;;;;;;;9.80;5.95;;;29.20;78.10;;;;;;5075351;28;20040;-76
2023/06/12 09:50:46;;;;;;;9.25;6.22;;;29.30;76.60;;;;;;5055819;28;20287;-74
2023/06/12 09:53:16;;;;;;;6.55;5.57;;;29.40;76.10;;;;;;5052924;28;20101;-74
2023/06/12 09:55:44;;;;;;;12.25;6.05;;;29.50;75.40;;;;;;5051977;28;20040;-74
2023/06/12 09:58:13;;;;;;;11.93;6.55;;;29.50;76.00;;;;;;5050820;28;20090;-74
2023/06/12 10:00:39;;;;;;;8.52;6.00;;;29.70;75.60;;;;;;5052162;28;20031;-74
2023/06/12 10:03:10;;;;;;;11.32;6.40;;;29.90;75.10;;;;;;5050216;28;20603;-74
2023/06/12 10:05:48;;;;;;;22.25;6.45;;;29.90;73.50;;;;;;5068510;28;20055;-75
2023/06/12 10:08:16;;;;;;;8.45;5.95;;;30.10;73.50;;;;;;5069818;28;20127;-74
2023/06/12 10:10:43;;;;;;;6.88;5.90;;;30.00;72.80;;;;;;5068272;28;20501;-74
2023/06/12 10:13:10;;;;;;;11.63;6.47;;;30.20;73.20;;;;;;5055166;28;20264;-75
2023/06/12 10:15:37;;;;;;;9.55;6.00;;;30.20;72.30;;;;;;5059028;28;20048;-74
2023/06/12 10:18:05;;;;;;;8.07;6.60;;;30.40;71.90;;;;;;5049799;28;20122;-74
2023/06/12 10:20:32;;;;;;;10.35;5.88;;;30.60;69.20;;;;;;5048875;28;20135;-74
2023/06/12 10:22:58;;;;;;;7.70;5.82;;;30.60;68.40;;;;;;5033321;28;20032;-75
2023/06/12 10:25:24;;;;;;;8.85;6.38;;;30.60;67.80;;;;;;5064149;28;20475;-74
2023/06/12 10:27:53;;;;;;;7.70;5.88;;;30.60;68.00;;;;;;5065976;28;20046;-74
2023/06/12 10:30:19;;;;;;;8.48;6.15;;;30.40;67.50;;;;;;5054080;28;20097;-74
2023/06/12 10:32:45;;;;;;;8.95;5.82;;;30.60;67.80;;;;;;5069196;28;20044;-76
2023/06/12 10:35:12;;;;;;;9.30;6.10;;;30.70;67.20;;;;;;5047000;28;20032;-75
2023/06/12 10:37:46;;;;;;;7.93;6.32;;;30.90;65.60;;;;;;5049911;28;20040;-76
2023/06/12 10:40:19;;;;;;;9.00;6.45;;;31.10;61.20;;;;;;5047844;28;20363;-75
2023/06/12 10:43:09;;;;;;;10.85;6.03;;;31.30;62.70;;;;;;5041779;28;20041;-75
2023/06/12 10:45:38;;;;;;;10.43;6.32;;;31.40;61.00;;;;;;5068856;28;20048;-76
2023/06/12 10:48:04;;;;;;;9.10;6.10;;;31.20;60.20;;;;;;5037607;28;20028;-75
2023/06/12 10:50:44;;;;;;;10.13;6.30;;;31.00;60.20;;;;;;5042258;28;20074;-75
2023/06/12 10:53:22;;;;;;;12.02;6.43;;;31.10;59.40;;;;;;5041815;28;20063;-75
2023/06/12 10:55:48;;;;;;;10.02;6.53;;;31.20;58.40;;;;;;5082697;27;20040;-75
2023/06/12 10:58:18;;;;;;;10.05;6.25;;;31.20;60.30;;;;;;5047947;28;20090;-75
2023/06/12 11:00:51;;;;;;;7.65;6.63;;;31.40;60.80;;;;;;5086501;27;20485;-76
2023/06/12 11:03:26;;;;;;;9.40;6.30;;;31.40;59.30;;;;;;5041813;28;20072;-75
2023/06/12 11:05:55;;;;;;;7.97;6.10;;;31.50;58.60;;;;;;5048608;28;20039;-75
2023/06/12 11:08:23;;;;;;;9.52;5.90;;;31.40;59.00;;;;;;5050314;28;20053;-75
2023/06/12 11:10:49;;;;;;;9.88;6.35;;;31.40;58.60;;;;;;5063052;28;20696;-76
2023/06/12 11:13:15;;;;;;;11.82;6.75;;;31.50;59.30;;;;;;5046304;28;20071;-75
2023/06/12 11:15:45;;;;;;;11.05;6.10;;;31.40;58.50;;;;;;5028602;28;20513;-76
2023/06/12 11:18:12;;;;;;;11.73;6.53;;;31.60;57.80;;;;;;5058069;28;20455;-76
2023/06/12 11:20:39;;;;;;;7.72;6.90;;;31.80;58.70;;;;;;5030330;28;20137;-75
2023/06/12 11:23:06;;;;;;;8.02;7.00;;;32.00;59.30;;;;;;5063061;28;20927;-75
2023/06/12 11:25:33;;;;;;;13.15;6.38;;;32.10;58.40;;;;;;5048430;28;20044;-75
2023/06/12 11:27:59;;;;;;;7.50;6.55;;;32.10;57.00;;;;;;5062363;28;20146;-76
2023/06/12 11:30:25;;;;;;;8.20;6.75;;;31.80;56.60;;;;;;5046484;28;20039;-76
2023/06/12 11:32:51;;;;;;;13.20;7.20;;;31.60;57.00;;;;;;5046034;28;20052;-75
2023/06/12 11:35:16;;;;;;;7.53;6.70;;;31.60;56.90;;;;;;5043381;28;20043;-76
2023/06/12 11:37:42;;;;;;;8.40;6.50;;;31.70;56.70;;;;;;5050574;28;20039;-74
2023/06/12 11:40:14;;;;;;;7.53;6.43;;;31.80;56.60;;;;;;5051390;28;20040;-75
2023/06/12 11:42:43;;;;;;;;;;;31.90;55.80;;;;;;5067768;28;20044;-74
2023/06/12 11:45:13;;;;;;;7.43;5.97;;;31.90;56.70;;;;;;5062752;28;19928;-75
2023/06/12 11:47:41;;;;;;;11.45;6.45;;;32.00;56.10;;;;;;5051893;28;20032;-74
2023/06/12 11:50:13;;;;;;;12.30;6.72;;;32.20;56.60;;;;;;5051166;28;20051;-74
2023/06/12 11:52:41;;;;;;;7.32;6.32;;;32.40;56.90;;;;;;5083919;27;20048;-74
2023/06/12 11:55:09;;;;;;;6.93;6.28;;;32.00;55.00;;;;;;5067794;28;20388;-74
2023/06/12 11:57:35;;;;;;;7.65;6.60;;;31.70;54.90;;;;;;5084570;28;20409;-74
2023/06/12 12:00:16;;;;;;;6.88;6.07;;;31.90;56.20;;;;;;5048738;28;20048;-75
2023/06/12 12:02:49;;;;;;;8.30;6.60;;;31.50;54.30;;;;;;5084937;28;20113;-74
2023/06/12 12:05:18;;;;;;;12.15;6.30;;;31.10;54.70;;;;;;5065373;28;20317;-74
2023/06/12 12:07:48;;;;;;;9.93;6.63;;;30.90;55.60;;;;;;5048067;28;20036;-74
2023/06/12 12:10:14;;;;;;;9.65;6.38;;;31.10;55.60;;;;;;5033524;28;20036;-74
2023/06/12 12:12:51;;;;;;;7.32;6.05;;;31.40;56.30;;;;;;5034211;28;20045;-75
2023/06/12 12:15:21;;;;;;;7.68;6.10;;;31.40;55.70;;;;;;5046913;28;20142;-74
2023/06/12 12:17:47;;;;;;;9.90;6.28;;;31.40;55.40;;;;;;5049336;28;20032;-75
2023/06/12 12:20:18;;;;;;;8.75;6.60;;;31.40;56.50;;;;;;5030617;28;20044;-76
2023/06/12 12:22:57;;;;;;;8.82;6.70;;;31.60;55.80;;;;;;5067664;28;20040;-76
2023/06/12 12:25:26;;;;;;;7.18;6.03;;;31.40;54.70;;;;;;5070122;28;20036;-75
2023/06/12 12:27:54;;;;;;;8.43;5.90;;;31.20;54.70;;;;;;5051585;28;20036;-76
2023/06/12 12:30:21;;;;;;;8.07;6.15;;;31.00;55.20;;;;;;5039031;28;20145;-76
2023/06/12 12:32:48;;;;;;;6.82;6.07;;;31.00;55.10;;;;;;5067186;28;20043;-77
2023/06/12 12:35:15;;;;;;;6.47;5.80;;;31.00;55.70;;;;;;5066643;28;20546;-79
2023/06/12 12:37:41;;;;;;;18.98;6.53;;;31.10;56.10;;;;;;5047137;28;20100;-76
2023/06/12 12:40:10;;;;;;;11.40;6.63;;;31.00;55.60;;;;;;5069257;28;20577;-76
2023/06/12 12:42:39;;;;;;;10.30;6.30;;;30.90;55.50;;;;;;5068090;28;20949;-76
2023/06/12 12:45:07;;;;;;;6.80;6.07;;;31.10;55.70;;;;;;5069823;28;20042;-76